EST,Max TemperatureF,Mean TemperatureF,Min TemperatureF,Max Dew PointF,MeanDew PointF,Min DewpointF,Max Humidity, Mean Humidity, Min Humidity, Max Sea Level PressureIn, Mean Sea Level PressureIn, Min Sea Level PressureIn, Max VisibilityMiles, Mean VisibilityMiles, Min VisibilityMiles, Max Wind SpeedMPH, Mean Wind SpeedMPH, Max Gust SpeedMPH,PrecipitationIn, CloudCover, Events, WindDirDegrees
2012-11-1,42,40,38,38,37,36,92,87,82,29.83,29.76,29.70,10,8,2,13,6,16,0.09,8,Rain,215
2012-11-2,45,41,37,36,31,28,85,69,53,30.04,29.91,29.78,10,10,10,14,6,20,0.00,8,,273
2012-11-3,44,41,38,31,29,28,76,67,57,30.14,30.11,30.02,10,10,10,12,4,15,0.00,8,,286
2012-11-4,44,41,38,32,28,26,82,68,53,30.14,30.12,30.10,10,10,10,9,3,13,0.00,8,,336
2012-11-5,42,38,33,31,27,25,76,64,51,30.19,30.15,30.12,10,10,10,7,2,9,0.00,7,,317
2012-11-6,53,41,29,28,26,24,78,58,38,30.16,30.04,29.96,10,10,2,10,3,16,0.00,0,,101
2012-11-7,43,37,31,27,26,25,75,64,53,30.05,29.97,29.92,10,10,9,9,4,13,0.00,0,,48
2012-11-8,46,35,23,27,26,22,92,69,45,30.21,30.17,30.06,10,9,5,8,2,14,0.00,1,,236
2012-11-9,55,42,28,33,30,25,92,69,45,30.31,30.25,30.20,10,10,10,10,2,16,0.00,0,,194
2012-11-10,70,52,33,40,34,31,86,56,26,30.31,30.26,30.21,10,10,9,12,3,20,0.01,3,Rain,185
2012-11-11,75,57,39,40,34,28,71,45,19,30.41,30.30,30.24,10,10,10,10,2,16,0.00,0,,166
2012-11-12,72,57,41,50,44,37,89,64,39,30.34,30.22,30.01,10,9,2,21,8,32,0.34,5,Rain,207
2012-11-13,43,37,30,37,28,23,86,68,50,30.55,30.44,30.34,10,10,10,12,4,18,0.00,6,,308
2012-11-14,45,36,26,27,25,23,92,71,49,30.57,30.49,30.39,10,10,8,10,3,16,0.00,0,,26
2012-11-15,50,40,29,29,26,23,85,62,39,30.37,30.33,30.30,10,10,10,8,1,10,0.00,0,,80
2012-11-16,51,39,26,31,27,25,92,67,42,30.50,30.42,30.34,10,10,6,10,1,13,0.00,0,,354
2012-11-17,58,42,26,30,25,20,92,59,26,30.60,30.55,30.51,10,10,8,10,3,16,0.00,0,,53
2012-11-18,59,50,41,30,27,24,57,44,30,30.53,30.49,30.43,10,10,10,15,6,18,0.00,0,,107
2012-11-19,56,44,32,35,33,30,89,64,38,30.43,30.34,30.21,10,10,10,8,2,10,0.00,0,,78
2012-11-20,56,45,34,35,34,32,92,68,43,30.21,30.16,30.11,10,10,6,5,0,6,0.00,2,,-1
2012-11-21,59,45,30,36,30,27,96,63,30,30.25,30.22,30.15,10,9,4,6,1,8,0.00,0,,10
2012-11-22,62,45,28,31,27,24,92,59,25,30.29,30.20,30.06,10,10,8,7,1,10,0.00,0,,205
2012-11-23,56,44,32,47,37,20,77,58,39,30.06,29.94,29.85,10,8,1,16,7,26,0.11,6,Rain,225
2012-11-24,32,31,30,25,22,19,78,67,56,30.14,30.08,30.04,10,7,1,13,6,21,T,8,Snow,267
2012-11-25,43,36,29,20,18,16,63,48,33,30.10,30.03,29.91,10,10,10,14,6,23,0.00,5,,223
2012-11-26,52,43,34,27,24,18,59,46,33,30.21,30.15,30.05,10,10,10,9,2,16,0.00,4,,223
2012-11-27,41,37,33,34,31,26,96,78,59,30.32,30.24,30.18,10,4,1,7,2,8,0.10,8,Snow,359
2012-11-28,42,34,26,30,24,19,89,65,41,30.41,30.34,30.26,10,10,6,13,4,22,0.00,5,,227
2012-11-29,46,35,24,25,22,20,88,63,37,30.46,30.38,30.32,10,10,7,10,2,15,0.00,0,,204
2012-11-30,56,42,28,31,27,22,85,60,35,30.34,30.29,30.24,10,10,10,12,3,18,0.00,2,,193